Time,TemperatureF,DewpointF,PressureIn,WindDirection,WindDirectionDegrees,WindSpeedMPH,WindSpeedGustMPH,Humidity,HourlyPrecipIn,Conditions,Clouds,dailyrainin,SoftwareType,DateUTC
2013-03-17 00:03:00,54.0,46.0,30.12,North,0,0.0,0.0,74,99.99,,,-99.99,,2013-03-17 04:03:00,
2013-03-17 00:13:00,54.0,46.0,30.12,North,0,0.0,0.0,74,99.99,,,-99.99,,2013-03-17 04:13:00,
2013-03-17 00:23:00,53.0,46.0,30.14,North,0,0.0,0.0,78,99.99,,,-99.99,,2013-03-17 04:23:00,
2013-03-17 00:32:00,53.0,47.0,30.12,North,0,0.0,0.0,80,99.99,,,-99.99,,2013-03-17 04:32:00,
2013-03-17 00:43:00,53.0,47.0,30.12,North,0,0.0,0.0,80,99.99,,,-99.99,,2013-03-17 04:43:00,
2013-03-17 00:53:00,52.0,46.0,30.12,North,0,0.0,0.0,80,99.99,,,-99.99,,2013-03-17 04:53:00,
2013-03-17 01:02:00,51.0,46.0,30.12,North,0,0.0,0.0,82,99.99,,,-99.99,,2013-03-17 05:02:00,
2013-03-17 01:12:00,51.0,46.0,30.12,North,0,0.0,0.0,82,99.99,,,-99.99,,2013-03-17 05:12:00,
2013-03-17 01:22:00,51.0,46.0,30.13,North,0,0.0,0.0,84,99.99,,,-99.99,,2013-03-17 05:22:00,
2013-03-17 01:32:00,51.0,47.0,30.11,North,0,0.0,0.0,86,99.99,,,-99.99,,2013-03-17 05:32:00,
2013-03-17 01:42:00,51.0,47.0,30.11,North,0,0.0,0.0,86,99.99,,,-99.99,,2013-03-17 05:42:00,
2013-03-17 01:52:00,50.0,47.0,30.11,North,0,0.0,0.0,89,99.99,,,-99.99,,2013-03-17 05:52:00,
2013-03-17 02:02:00,49.0,46.0,30.10,North,0,0.0,0.0,90,99.99,,,-99.99,,2013-03-17 06:02:00,
2013-03-17 02:12:00,49.0,46.0,30.10,North,0,0.0,0.0,90,99.99,,,-99.99,,2013-03-17 06:12:00,
2013-03-17 02:22:00,49.0,46.0,30.11,North,0,0.0,0.0,91,99.99,,,-99.99,,2013-03-17 06:22:00,
2013-03-17 02:32:00,49.0,48.0,30.11,North,0,0.0,0.0,95,99.99,,,-99.99,,2013-03-17 06:32:00,
2013-03-17 02:42:00,49.0,48.0,30.11,North,0,0.0,0.0,95,99.99,,,-99.99,,2013-03-17 06:42:00,
2013-03-17 02:52:00,49.0,48.0,30.10,North,0,0.0,0.0,96,99.99,,,-99.99,,2013-03-17 06:52:00,
2013-03-17 03:02:00,48.0,46.0,30.10,North,0,0.0,0.0,94,99.99,,,-99.99,,2013-03-17 07:02:00,
2013-03-17 03:12:00,48.0,46.0,30.10,North,0,0.0,0.0,94,99.99,,,-99.99,,2013-03-17 07:12:00,
2013-03-17 03:22:00,48.0,47.0,30.11,North,0,0.0,0.0,95,99.99,,,-99.99,,2013-03-17 07:22:00,
2013-03-17 03:32:00,48.0,47.0,30.10,North,0,0.0,0.0,97,99.99,,,-99.99,,2013-03-17 07:32:00,
2013-03-17 03:42:00,48.0,47.0,30.10,North,0,0.0,0.0,97,99.99,,,-99.99,,2013-03-17 07:42:00,
2013-03-17 03:52:00,48.0,47.0,30.10,North,0,0.0,0.0,97,99.99,,,-99.99,,2013-03-17 07:52:00,
2013-03-17 04:03:00,47.0,46.0,30.09,North,0,0.0,0.0,97,99.99,,,-99.99,,2013-03-17 08:03:00,
2013-03-17 04:13:00,46.0,45.0,30.10,North,0,0.0,0.0,97,99.99,,,-99.99,,2013-03-17 08:13:00,
2013-03-17 04:22:00,46.0,45.0,30.10,North,0,0.0,0.0,97,99.99,,,-99.99,,2013-03-17 08:22:00,
2013-03-17 04:32:00,47.0,46.0,30.09,North,0,0.0,0.0,98,99.99,,,-99.99,,2013-03-17 08:32:00,
2013-03-17 04:42:00,47.0,46.0,30.09,North,0,0.0,0.0,98,99.99,,,-99.99,,2013-03-17 08:42:00,
2013-03-17 04:52:00,46.0,45.0,30.09,North,0,0.0,0.0,98,99.99,,,-99.99,,2013-03-17 08:52:00,
2013-03-17 05:03:00,46.0,45.0,30.08,North,0,0.0,0.0,98,99.99,,,-99.99,,2013-03-17 09:03:00,
2013-03-17 05:12:00,46.0,45.0,30.08,North,0,0.0,0.0,98,99.99,,,-99.99,,2013-03-17 09:12:00,
2013-03-17 05:22:00,46.0,45.0,30.09,North,0,0.0,0.0,98,99.99,,,-99.99,,2013-03-17 09:22:00,
2013-03-17 05:32:00,46.0,46.0,30.08,North,0,0.0,0.0,99,99.99,,,-99.99,,2013-03-17 09:32:00,
2013-03-17 05:43:00,46.0,46.0,30.08,North,0,0.0,0.0,99,99.99,,,-99.99,,2013-03-17 09:43:00,
2013-03-17 05:53:00,46.0,46.0,30.09,North,0,0.0,0.0,99,99.99,,,-99.99,,2013-03-17 09:53:00,
2013-03-17 06:03:00,46.0,45.0,30.09,North,0,0.0,0.0,98,99.99,,,-99.99,,2013-03-17 10:03:00,
2013-03-17 06:13:00,46.0,45.0,30.09,North,0,0.0,0.0,98,99.99,,,-99.99,,2013-03-17 10:13:00,
2013-03-17 06:23:00,46.0,46.0,30.10,North,0,0.0,0.0,99,99.99,,,-99.99,,2013-03-17 10:23:00,
2013-03-17 06:33:00,46.0,46.0,30.09,North,0,0.0,0.0,99,99.99,,,-99.99,,2013-03-17 10:33:00,
2013-03-17 06:42:00,46.0,46.0,30.09,North,0,0.0,0.0,99,99.99,,,-99.99,,2013-03-17 10:42:00,
2013-03-17 06:52:00,46.0,46.0,30.11,North,0,0.0,0.0,99,99.99,,,-99.99,,2013-03-17 10:52:00,
2013-03-17 07:02:00,47.0,47.0,30.11,North,0,0.0,0.0,100,99.99,,,-99.99,,2013-03-17 11:02:00,
2013-03-17 07:12:00,47.0,47.0,30.11,North,0,0.0,0.0,100,99.99,,,-99.99,,2013-03-17 11:12:00,
2013-03-17 07:22:00,48.0,48.0,30.13,WSW,255,0.0,1.0,100,99.99,,,-99.99,,2013-03-17 11:22:00,
2013-03-17 07:32:00,49.0,49.0,30.12,East,90,0.0,1.0,100,99.99,,,-99.99,,2013-03-17 11:32:00,
2013-03-17 07:42:00,49.0,49.0,30.12,East,90,0.0,1.0,100,99.99,,,-99.99,,2013-03-17 11:42:00,
2013-03-17 07:52:00,50.0,50.0,30.12,North,0,0.0,0.0,100,99.99,,,-99.99,,2013-03-17 11:52:00,
2013-03-17 08:02:00,51.0,51.0,30.13,North,0,0.0,0.0,100,99.99,,,-99.99,,2013-03-17 12:02:00,
2013-03-17 08:12:00,51.0,51.0,30.13,North,0,0.0,0.0,100,99.99,,,-99.99,,2013-03-17 12:12:00,
2013-03-17 08:22:00,52.0,52.0,30.14,North,0,0.0,0.0,100,99.99,,,-99.99,,2013-03-17 12:22:00,
2013-03-17 08:33:00,51.0,51.0,30.13,North,0,0.0,0.0,100,99.99,,,-99.99,,2013-03-17 12:33:00,
2013-03-17 08:43:00,51.0,51.0,30.13,North,0,0.0,0.0,100,99.99,,,-99.99,,2013-03-17 12:43:00,
2013-03-17 08:52:00,53.0,53.0,30.14,North,0,0.0,0.0,100,99.99,,,-99.99,,2013-03-17 12:52:00,
2013-03-17 09:02:00,55.0,55.0,30.14,North,0,0.0,0.0,100,99.99,,,-99.99,,2013-03-17 13:02:00,
2013-03-17 09:12:00,55.0,55.0,30.14,North,0,0.0,0.0,100,99.99,,,-99.99,,2013-03-17 13:12:00,
2013-03-17 09:22:00,57.0,57.0,30.15,North,0,0.0,0.0,100,99.99,,,-99.99,,2013-03-17 13:22:00,
2013-03-17 09:32:00,59.0,58.0,30.14,North,0,0.0,0.0,97,99.99,,,-99.99,,2013-03-17 13:32:00,
2013-03-17 09:42:00,59.0,58.0,30.14,North,0,0.0,0.0,97,99.99,,,-99.99,,2013-03-17 13:42:00,
2013-03-17 09:52:00,62.0,58.0,30.14,ESE,118,1.0,3.0,87,99.99,,,-99.99,,2013-03-17 13:52:00,
2013-03-17 10:02:00,65.0,54.0,30.14,SE,139,3.0,5.0,68,99.99,,,-99.99,,2013-03-17 14:02:00,
2013-03-17 10:12:00,65.0,54.0,30.14,SE,139,3.0,5.0,68,99.99,,,-99.99,,2013-03-17 14:12:00,
2013-03-17 10:22:00,68.0,51.0,30.15,SSE,152,2.0,5.0,55,99.99,,,-99.99,,2013-03-17 14:22:00,
2013-03-17 10:32:00,69.0,48.0,30.14,SSW,197,2.0,5.0,48,99.99,,,-99.99,,2013-03-17 14:32:00,
2013-03-17 10:42:00,69.0,48.0,30.14,SSW,197,2.0,5.0,48,99.99,,,-99.99,,2013-03-17 14:42:00,
2013-03-17 10:53:00,71.0,50.0,30.14,SSE,152,5.0,10.0,48,99.99,,,-99.99,,2013-03-17 14:53:00,
2013-03-17 11:02:00,71.0,49.0,30.14,SSE,153,4.0,10.0,46,99.99,,,-99.99,,2013-03-17 15:02:00,
2013-03-17 11:12:00,71.0,49.0,30.14,SSE,153,4.0,10.0,46,99.99,,,-99.99,,2013-03-17 15:12:00,
2013-03-17 11:23:00,71.0,49.0,30.15,South,169,5.0,10.0,45,99.99,,,-99.99,,2013-03-17 15:23:00,
2013-03-17 11:33:00,71.0,48.0,30.14,WSW,238,3.0,8.0,44,99.99,,,-99.99,,2013-03-17 15:33:00,
2013-03-17 11:43:00,71.0,48.0,30.14,WSW,238,3.0,8.0,44,99.99,,,-99.99,,2013-03-17 15:43:00,
2013-03-17 11:53:00,71.0,47.0,30.15,SSW,203,5.0,9.0,43,99.99,,,-99.99,,2013-03-17 15:53:00,
2013-03-17 12:03:00,72.0,49.0,30.15,South,181,5.0,10.0,44,99.99,,,-99.99,,2013-03-17 16:03:00,
2013-03-17 12:12:00,72.0,49.0,30.15,South,181,5.0,10.0,44,99.99,,,-99.99,,2013-03-17 16:12:00,
2013-03-17 12:23:00,73.0,49.0,30.15,South,170,4.0,10.0,42,99.99,,,-99.99,,2013-03-17 16:23:00,
2013-03-17 12:33:00,73.0,49.0,30.14,SW,236,4.0,10.0,43,99.99,,,-99.99,,2013-03-17 16:33:00,
2013-03-17 12:43:00,73.0,49.0,30.14,SW,236,4.0,10.0,43,99.99,,,-99.99,,2013-03-17 16:43:00,
2013-03-17 12:52:00,73.0,47.0,30.14,SSW,198,4.0,8.0,39,99.99,,,-99.99,,2013-03-17 16:52:00,
2013-03-17 13:02:00,73.0,48.0,30.13,South,176,3.0,8.0,41,99.99,,,-99.99,,2013-03-17 17:02:00,
2013-03-17 13:12:00,73.0,48.0,30.13,South,176,3.0,8.0,41,99.99,,,-99.99,,2013-03-17 17:12:00,
2013-03-17 13:22:00,74.0,48.0,30.13,SSE,160,5.0,10.0,40,99.99,,,-99.99,,2013-03-17 17:22:00,
2013-03-17 13:33:00,73.0,49.0,30.11,South,180,4.0,8.0,42,99.99,,,-99.99,,2013-03-17 17:33:00,
2013-03-17 13:42:00,73.0,49.0,30.11,South,180,4.0,8.0,42,99.99,,,-99.99,,2013-03-17 17:42:00,
2013-03-17 13:53:00,74.0,49.0,30.10,SSW,193,4.0,11.0,42,99.99,,,-99.99,,2013-03-17 17:53:00,
2013-03-17 14:02:00,74.0,47.0,30.10,WSW,257,5.0,11.0,39,99.99,,,-99.99,,2013-03-17 18:02:00,
2013-03-17 14:12:00,74.0,47.0,30.10,WSW,257,5.0,11.0,39,99.99,,,-99.99,,2013-03-17 18:12:00,
2013-03-17 14:22:00,75.0,48.0,30.10,WSW,250,3.0,9.0,39,99.99,,,-99.99,,2013-03-17 18:22:00,
2013-03-17 14:32:00,75.0,48.0,30.08,South,188,4.0,9.0,38,99.99,,,-99.99,,2013-03-17 18:32:00,
2013-03-17 14:42:00,75.0,48.0,30.08,South,188,4.0,9.0,38,99.99,,,-99.99,,2013-03-17 18:42:00,
2013-03-17 14:52:00,76.0,48.0,30.07,SSE,163,4.0,11.0,37,99.99,,,-99.99,,2013-03-17 18:52:00,
2013-03-17 15:02:00,76.0,49.0,30.07,SE,142,4.0,12.0,38,99.99,,,-99.99,,2013-03-17 19:02:00,
2013-03-17 15:12:00,76.0,49.0,30.07,SE,142,4.0,12.0,38,99.99,,,-99.99,,2013-03-17 19:12:00,
2013-03-17 15:22:00,75.0,48.0,30.07,WSW,242,4.0,9.0,38,99.99,,,-99.99,,2013-03-17 19:22:00,
2013-03-17 15:33:00,77.0,47.0,30.06,WSW,250,5.0,11.0,35,99.99,,,-99.99,,2013-03-17 19:33:00,
2013-03-17 15:42:00,77.0,47.0,30.06,WSW,250,5.0,11.0,35,99.99,,,-99.99,,2013-03-17 19:42:00,
2013-03-17 15:53:00,77.0,47.0,30.04,South,181,6.0,10.0,35,99.99,,,-99.99,,2013-03-17 19:53:00,
2013-03-17 16:02:00,77.0,46.0,30.04,WSW,255,4.0,8.0,34,99.99,,,-99.99,,2013-03-17 20:02:00,
2013-03-17 16:12:00,77.0,46.0,30.04,WSW,255,4.0,8.0,34,99.99,,,-99.99,,2013-03-17 20:12:00,
2013-03-17 16:22:00,76.0,47.0,30.05,WSW,256,4.0,9.0,36,99.99,,,-99.99,,2013-03-17 20:22:00,
2013-03-17 16:33:00,77.0,47.0,30.03,West,280,4.0,7.0,35,99.99,,,-99.99,,2013-03-17 20:33:00,
2013-03-17 16:42:00,77.0,47.0,30.03,West,280,4.0,7.0,35,99.99,,,-99.99,,2013-03-17 20:42:00,
2013-03-17 16:52:00,77.0,47.0,30.03,SW,229,2.0,7.0,35,99.99,,,-99.99,,2013-03-17 20:52:00,
2013-03-17 17:03:00,77.0,48.0,30.03,WSW,246,3.0,8.0,36,99.99,,,-99.99,,2013-03-17 21:03:00,
2013-03-17 17:12:00,77.0,48.0,30.03,WSW,246,3.0,8.0,36,99.99,,,-99.99,,2013-03-17 21:12:00,
2013-03-17 17:22:00,76.0,48.0,30.03,South,184,3.0,5.0,37,99.99,,,-99.99,,2013-03-17 21:22:00,
2013-03-17 17:33:00,76.0,49.0,30.01,South,188,2.0,6.0,38,99.99,,,-99.99,,2013-03-17 21:33:00,
2013-03-17 17:43:00,76.0,49.0,30.01,South,188,2.0,6.0,38,99.99,,,-99.99,,2013-03-17 21:43:00,
2013-03-17 17:52:00,75.0,45.0,30.01,South,179,3.0,7.0,35,99.99,,,-99.99,,2013-03-17 21:52:00,
2013-03-17 18:03:00,75.0,45.0,30.01,SW,228,1.0,2.0,34,99.99,,,-99.99,,2013-03-17 22:03:00,
2013-03-17 18:12:00,75.0,41.0,30.03,WSW,249,2.0,6.0,30,99.99,,,-99.99,,2013-03-17 22:12:00,
2013-03-17 18:23:00,75.0,41.0,30.03,WSW,249,2.0,6.0,30,99.99,,,-99.99,,2013-03-17 22:23:00,
2013-03-17 18:33:00,76.0,38.0,30.02,SW,228,3.0,7.0,25,99.99,,,-99.99,,2013-03-17 22:33:00,
2013-03-17 18:42:00,76.0,38.0,30.02,SW,228,3.0,7.0,25,99.99,,,-99.99,,2013-03-17 22:42:00,
2013-03-17 18:53:00,75.0,44.0,30.01,WSW,249,2.0,6.0,33,99.99,,,-99.99,,2013-03-17 22:53:00,
2013-03-17 19:03:00,75.0,45.0,30.01,South,183,1.0,4.0,34,99.99,,,-99.99,,2013-03-17 23:03:00,
2013-03-17 19:12:00,75.0,45.0,30.01,South,183,1.0,4.0,34,99.99,,,-99.99,,2013-03-17 23:12:00,
2013-03-17 19:22:00,74.0,45.0,30.02,North,0,0.0,0.0,36,99.99,,,-99.99,,2013-03-17 23:22:00,
2013-03-17 19:33:00,74.0,44.0,30.02,North,0,0.0,0.0,34,99.99,,,-99.99,,2013-03-17 23:33:00,
2013-03-17 19:42:00,74.0,44.0,30.02,North,0,0.0,0.0,34,99.99,,,-99.99,,2013-03-17 23:42:00,
2013-03-17 19:53:00,73.0,44.0,30.02,North,0,0.0,0.0,35,99.99,,,-99.99,,2013-03-17 23:53:00,
2013-03-17 20:03:00,73.0,45.0,30.01,North,0,0.0,0.0,37,99.99,,,-99.99,,2013-03-18 00:03:00,
2013-03-17 20:22:00,72.0,46.0,30.03,North,0,0.0,0.0,39,99.99,,,-99.99,,2013-03-18 00:22:00,
2013-03-17 20:33:00,72.0,47.0,30.02,North,0,0.0,0.0,41,99.99,,,-99.99,,2013-03-18 00:33:00,
2013-03-17 20:42:00,72.0,47.0,30.02,North,0,0.0,0.0,41,99.99,,,-99.99,,2013-03-18 00:42:00,
2013-03-17 20:53:00,71.0,47.0,30.02,North,0,0.0,0.0,43,99.99,,,-99.99,,2013-03-18 00:53:00,
2013-03-17 21:02:00,69.0,50.0,30.03,North,0,0.0,0.0,51,99.99,,,-99.99,,2013-03-18 01:02:00,
2013-03-17 21:12:00,69.0,50.0,30.03,North,0,0.0,0.0,51,99.99,,,-99.99,,2013-03-18 01:12:00,
2013-03-17 21:22:00,68.0,50.0,30.03,North,0,0.0,0.0,53,99.99,,,-99.99,,2013-03-18 01:22:00,
2013-03-17 21:32:00,67.0,51.0,30.03,North,0,0.0,0.0,57,99.99,,,-99.99,,2013-03-18 01:32:00,
2013-03-17 21:42:00,67.0,51.0,30.03,North,0,0.0,0.0,57,99.99,,,-99.99,,2013-03-18 01:42:00,
2013-03-17 21:52:00,67.0,53.0,30.04,North,0,0.0,0.0,60,99.99,,,-99.99,,2013-03-18 01:52:00,
2013-03-17 22:02:00,66.0,53.0,30.04,North,0,0.0,0.0,64,99.99,,,-99.99,,2013-03-18 02:02:00,
2013-03-17 22:12:00,66.0,53.0,30.04,North,0,0.0,0.0,64,99.99,,,-99.99,,2013-03-18 02:12:00,
2013-03-17 22:22:00,64.0,52.0,30.05,North,0,0.0,0.0,66,99.99,,,-99.99,,2013-03-18 02:22:00,
2013-03-17 22:32:00,64.0,53.0,30.04,North,0,0.0,0.0,68,99.99,,,-99.99,,2013-03-18 02:32:00,
2013-03-17 22:42:00,64.0,53.0,30.04,North,0,0.0,0.0,68,99.99,,,-99.99,,2013-03-18 02:42:00,
2013-03-17 22:52:00,64.0,54.0,30.05,North,0,0.0,0.0,69,99.99,,,-99.99,,2013-03-18 02:52:00,
2013-03-17 23:03:00,64.0,55.0,30.06,North,0,0.0,0.0,72,99.99,,,-99.99,,2013-03-18 03:03:00,
2013-03-17 23:11:00,63.0,54.0,30.07,North,0,0.0,0.0,73,99.99,,,-99.99,,2013-03-18 03:11:00,
2013-03-17 23:22:00,63.0,54.0,30.07,North,0,0.0,0.0,73,99.99,,,-99.99,,2013-03-18 03:22:00,
2013-03-17 23:33:00,62.0,54.0,30.06,North,0,0.0,0.0,75,99.99,,,-99.99,,2013-03-18 03:33:00,
2013-03-17 23:42:00,62.0,54.0,30.06,North,0,0.0,0.0,75,99.99,,,-99.99,,2013-03-18 03:42:00,
2013-03-17 23:53:00,61.0,53.0,30.06,North,0,0.0,0.0,75,99.99,,,-99.99,,2013-03-18 03:53:00,